Time;durP1;ratioP1;P1;durP2;ratioP2;P2;SDS_P1;SDS_P2;PMS_P1;PMS_P2;Temp;Humidity;BMP_temperature;BMP_pressure;BME280_temperature;BME280_humidity;BME280_pressure;Samples;Min_cycle;Max_cycle;Signal;HPM_P1;HPM_P2
2023/05/17 00:00:27;;;;;;;5.78;2.25;;;;;;;12.60;100.00;97308.44;5111179;28;20040;-96
2023/05/17 00:02:53;;;;;;;5.97;3.13;;;;;;;12.60;100.00;97307.56;5111424;28;20048;-96
2023/05/17 00:05:19;;;;;;;7.68;2.72;;;;;;;12.64;100.00;97311.78;5111012;28;20079;-95
2023/05/17 00:07:48;;;;;;;8.13;3.05;;;;;;;12.59;100.00;97306.72;5111395;28;20052;-95
2023/05/17 00:10:14;;;;;;;5.85;2.65;;;;;;;12.63;100.00;97310.06;5110757;28;20085;-95
2023/05/17 00:12:41;;;;;;;6.25;2.63;;;;;;;12.63;100.00;97312.72;5110553;28;20054;-95
2023/05/17 00:15:07;;;;;;;5.05;3.30;;;;;;;12.82;100.00;97345.38;5110761;28;20069;-95
2023/05/17 00:17:36;;;;;;;6.32;3.67;;;;;;;12.67;100.00;97315.13;5109724;28;20134;-96
2023/05/17 00:20:03;;;;;;;6.20;3.08;;;;;;;12.67;100.00;97316.94;5110543;28;20031;-94
2023/05/17 00:22:30;;;;;;;9.77;3.85;;;;;;;12.65;100.00;97309.03;5110256;28;20048;-95
2023/05/17 00:24:56;;;;;;;10.30;3.85;;;;;;;12.71;100.00;97308.66;5109921;28;20048;-95
2023/05/17 00:27:22;;;;;;;8.10;3.80;;;;;;;12.77;100.00;97317.25;5109674;28;20048;-94
2023/05/17 00:29:49;;;;;;;8.60;3.88;;;;;;;12.77;100.00;97312.75;5110203;28;20043;-95
2023/05/17 00:32:22;;;;;;;12.35;3.75;;;;;;;12.86;100.00;97324.69;5110433;28;20376;-95
2023/05/17 00:34:51;;;;;;;7.82;4.32;;;;;;;12.84;100.00;97314.13;5110513;28;20063;-95
2023/05/17 00:37:17;;;;;;;10.25;4.07;;;;;;;12.84;100.00;97316.81;5110233;28;20044;-96
2023/05/17 00:39:43;;;;;;;10.82;4.25;;;;;;;12.82;100.00;97307.19;5110414;28;20050;-96
2023/05/17 00:42:10;;;;;;;8.25;3.70;;;;;;;12.84;100.00;97311.47;5111127;28;20071;-95
2023/05/17 00:44:36;;;;;;;8.13;3.72;;;;;;;12.99;100.00;97333.72;5110090;28;20134;-95
2023/05/17 00:47:02;;;;;;;8.05;3.40;;;;;;;12.97;100.00;97322.28;5110425;28;20049;-95
2023/05/17 00:49:28;;;;;;;7.90;3.30;;;;;;;13.08;100.00;97348.31;5111027;28;20481;-95
2023/05/17 00:51:57;;;;;;;8.13;3.33;;;;;;;12.99;100.00;97330.16;5110708;28;20044;-96
2023/05/17 00:54:24;;;;;;;;;;;;;;;13.10;100.00;97363.28;5110734;28;20077;-94
2023/05/17 00:56:51;;;;;;;6.88;3.30;;;;;;;12.83;100.00;97315.06;5109853;28;19919;-95
2023/05/17 00:59:18;;;;;;;6.18;2.92;;;;;;;13.00;100.00;97338.09;5109286;28;20107;-96
2023/05/17 01:01:44;;;;;;;8.27;3.03;;;;;;;12.89;100.00;97329.88;5110360;28;20094;-94
2023/05/17 01:04:10;;;;;;;6.97;3.30;;;;;;;12.81;100.00;97319.63;5109880;28;20060;-95
2023/05/17 01:06:37;;;;;;;10.10;3.78;;;;;;;13.07;100.00;97360.78;5110650;28;20055;-94
2023/05/17 01:09:06;;;;;;;5.22;3.40;;;;;;;12.79;100.00;97316.19;5109890;28;20039;-95
2023/05/17 01:11:42;;;;;;;5.80;2.55;;;;;;;12.79;100.00;97312.69;5109631;28;20047;-95
2023/05/17 01:14:26;;;;;;;5.03;2.63;;;;;;;12.80;100.00;97319.75;5110275;28;20051;-94
2023/05/17 01:16:58;;;;;;;5.97;2.75;;;;;;;12.80;100.00;97317.94;5109865;28;20040;-95
2023/05/17 01:19:49;;;;;;;6.80;2.80;;;;;;;12.77;100.00;97310.09;5109229;28;20043;-94
2023/05/17 01:22:26;;;;;;;6.80;4.97;;;;;;;12.75;100.00;97314.66;5109056;28;20043;-95
2023/05/17 01:25:06;;;;;;;8.30;4.05;;;;;;;12.95;100.00;97348.19;5109185;28;20063;-96
2023/05/17 01:27:38;;;;;;;6.22;3.00;;;;;;;12.91;100.00;97339.50;5109264;28;20056;-95
2023/05/17 01:30:09;;;;;;;6.05;2.80;;;;;;;12.74;100.00;97320.97;5109279;28;20048;-96
2023/05/17 01:32:37;;;;;;;7.40;2.80;;;;;;;12.75;100.00;97320.00;5109147;28;20039;-95
2023/05/17 01:35:04;;;;;;;8.23;3.13;;;;;;;12.74;100.00;97323.63;5108207;28;20047;-96
2023/05/17 01:37:30;;;;;;;6.68;2.80;;;;;;;12.70;100.00;97316.75;5108340;28;20442;-95
2023/05/17 01:39:57;;;;;;;7.03;2.95;;;;;;;12.71;100.00;97321.16;5107690;28;20073;-95
2023/05/17 01:42:28;;;;;;;8.15;3.03;;;;;;;12.70;100.00;97317.59;5107076;28;20040;-95
2023/05/17 01:45:02;;;;;;;8.18;2.88;;;;;;;12.69;100.00;97317.72;5108988;28;20048;-95
2023/05/17 01:47:35;;;;;;;6.03;3.05;;;;;;;12.71;100.00;97329.16;5108954;28;20101;-96
2023/05/17 01:50:04;;;;;;;8.85;4.03;;;;;;;12.67;100.00;97322.28;5108533;28;20039;-96
2023/05/17 01:52:41;;;;;;;4.32;2.70;;;;;;;12.78;100.00;97343.84;5107933;28;20043;-94
2023/05/17 01:55:17;;;;;;;6.38;2.65;;;;;;;12.71;100.00;97329.16;5111479;28;20071;-95
2023/05/17 01:57:47;;;;;;;8.13;3.30;;;;;;;12.71;100.00;97327.34;5110671;28;20048;-95
2023/05/17 02:00:16;;;;;;;5.93;2.97;;;;;;;12.83;100.00;97351.56;5109212;28;20044;-96
2023/05/17 02:02:44;;;;;;;5.35;3.08;;;;;;;12.70;100.00;97324.75;5110288;28;20139;-95
2023/05/17 02:05:10;;;;;;;9.95;3.88;;;;;;;12.72;100.00;97338.84;5108942;28;20047;-95
2023/05/17 02:07:36;;;;;;;5.93;3.47;;;;;;;12.70;100.00;97333.59;5109174;28;20074;-94
2023/05/17 02:10:02;;;;;;;6.47;3.58;;;;;;;12.72;100.00;97339.72;5107907;28;20047;-95
2023/05/17 02:12:29;;;;;;;6.43;3.90;;;;;;;12.76;100.00;97342.22;5106716;28;20134;-95
2023/05/17 02:14:55;;;;;;;7.75;4.15;;;;;;;12.76;100.00;97335.06;5105093;28;20083;-95
2023/05/17 02:17:23;;;;;;;5.85;3.67;;;;;;;12.90;100.00;97355.56;5104257;28;20064;-95
2023/05/17 02:19:49;;;;;;;5.38;3.50;;;;;;;12.93;100.00;97368.75;5103176;28;20162;-96
2023/05/17 02:33:29;;;;;;;7.10;3.38;;;;;;;12.69;100.00;97349.72;5038531;28;20124;-95
2023/05/17 02:47:20;;;;;;;6.72;3.85;;;;;;;12.59;100.00;97353.84;4887509;29;20057;-94
2023/05/17 02:56:50;;;;;;;4.85;3.42;;;;;;;12.60;100.00;97371.56;4953282;29;20196;-94
2023/05/17 03:14:00;;;;;;;4.53;3.00;;;;;;;12.43;100.00;97376.06;4915342;29;20298;-94
2023/05/17 03:16:27;;;;;;;6.00;3.15;;;;;;;12.43;100.00;97375.22;4955551;28;20055;-95
2023/05/17 03:18:53;;;;;;;4.95;3.00;;;;;;;12.44;100.00;97382.25;4993630;28;20062;-93
2023/05/17 03:21:19;;;;;;;5.90;3.08;;;;;;;12.64;100.00;97422.00;5011978;28;20045;-95
2023/05/17 03:23:46;;;;;;;4.20;2.95;;;;;;;12.39;100.00;97376.34;5011757;28;20082;-92
2023/05/17 03:26:12;;;;;;;5.43;3.42;;;;;;;12.63;100.00;97419.41;5011628;28;20049;-93
2023/05/17 03:28:38;;;;;;;4.57;2.78;;;;;;;12.40;100.00;97392.22;5006692;28;20049;-93
2023/05/17 03:31:06;;;;;;;6.90;3.03;;;;;;;12.58;100.00;97421.47;4997417;28;20046;-94
2023/05/17 03:33:32;;;;;;;5.35;3.30;;;;;;;12.28;100.00;97371.63;4991380;28;20046;-94
2023/05/17 03:35:58;;;;;;;5.97;3.17;;;;;;;12.41;100.00;97398.44;4991177;28;20049;-94
2023/05/17 03:38:24;;;;;;;8.43;3.22;;;;;;;12.34;100.00;97381.94;4991185;28;20046;-92
2023/05/17 03:40:50;;;;;;;5.43;2.85;;;;;;;12.40;100.00;97405.56;5037066;28;20121;-93
2023/05/17 03:43:17;;;;;;;5.75;3.20;;;;;;;12.29;100.00;97395.50;5066657;28;20048;-93
2023/05/17 03:45:43;;;;;;;5.25;3.08;;;;;;;12.43;100.00;97424.06;5070324;28;20065;-93
2023/05/17 03:48:11;;;;;;;4.28;3.08;;;;;;;12.47;100.00;97430.94;5091568;28;20051;-93
2023/05/17 03:50:39;;;;;;;5.35;3.10;;;;;;;12.29;100.00;97408.81;5091648;28;20044;-93
2023/05/17 03:53:06;;;;;;;6.43;3.65;;;;;;;12.56;100.00;97450.91;5108177;28;20048;-95
2023/05/17 03:55:32;;;;;;;6.90;3.72;;;;;;;12.33;100.00;97417.50;5091458;28;20044;-94
2023/05/17 03:57:58;;;;;;;9.50;3.97;;;;;;;12.36;100.00;97419.16;5091247;28;20527;-92
2023/05/17 04:00:25;;;;;;;6.07;3.90;;;;;;;12.39;100.00;97427.00;5090843;28;20048;-95
2023/05/17 04:02:51;;;;;;;5.32;3.65;;;;;;;12.32;100.00;97416.66;5091152;28;20055;-94
2023/05/17 04:05:19;;;;;;;6.30;3.50;;;;;;;12.50;100.00;97454.75;5108268;28;20048;-93
2023/05/17 04:07:45;;;;;;;4.72;3.58;;;;;;;12.35;100.00;97430.78;5103710;28;20059;-92
2023/05/17 04:10:11;;;;;;;5.88;3.53;;;;;;;12.29;100.00;97429.28;5111128;28;20047;-95
2023/05/17 04:12:37;;;;;;;5.43;3.42;;;;;;;12.30;100.00;97434.53;5110930;28;20043;-92
2023/05/17 04:15:05;;;;;;;6.05;3.15;;;;;;;12.34;100.00;97440.56;5110485;28;20067;-92
2023/05/17 04:17:31;;;;;;;5.93;3.50;;;;;;;12.28;100.00;97438.25;5111373;28;20028;-95
2023/05/17 04:19:57;;;;;;;6.68;3.33;;;;;;;12.29;100.00;97442.63;5110550;28;20542;-93
2023/05/17 04:22:25;;;;;;;7.38;3.40;;;;;;;12.27;100.00;97441.84;5111261;28;20058;-93
2023/05/17 04:24:51;;;;;;;6.63;3.53;;;;;;;12.27;100.00;97449.84;5110445;28;20097;-94
2023/05/17 04:27:17;;;;;;;4.88;3.10;;;;;;;12.25;100.00;97447.28;5110832;28;20071;-94
2023/05/17 04:29:43;;;;;;;8.13;3.70;;;;;;;12.44;100.00;97483.56;5109512;28;20060;-95
2023/05/17 04:32:09;;;;;;;6.20;3.00;;;;;;;12.28;100.00;97468.41;5110752;28;20172;-95
2023/05/17 04:34:36;;;;;;;5.65;3.42;;;;;;;12.20;100.00;97451.13;5110289;28;20043;-94
2023/05/17 04:37:02;;;;;;;15.63;3.60;;;;;;;12.39;100.00;97486.50;5110304;28;20047;-95
2023/05/17 04:39:30;;;;;;;6.55;4.00;;;;;;;12.23;100.00;97464.28;5110361;28;20042;-93
2023/05/17 04:41:56;;;;;;;6.07;3.40;;;;;;;12.39;100.00;97496.31;5110939;28;20058;-94
2023/05/17 04:44:22;;;;;;;4.63;3.38;;;;;;;12.36;100.00;97492.00;5110292;28;20048;-93
2023/05/17 04:46:49;;;;;;;5.63;3.30;;;;;;;12.23;100.00;97469.59;5108920;28;20054;-94
2023/05/17 04:49:15;;;;;;;5.88;3.42;;;;;;;12.38;100.00;97503.41;5110266;28;20051;-94
2023/05/17 04:51:41;;;;;;;5.38;3.20;;;;;;;12.22;100.00;97468.75;5109046;28;20048;-94
2023/05/17 04:54:07;;;;;;;5.70;3.00;;;;;;;12.23;100.00;97473.16;5109194;28;20043;-93
2023/05/17 04:56:36;;;;;;;5.03;3.30;;;;;;;12.23;100.00;97481.16;5109899;28;20048;-94
2023/05/17 04:59:02;;;;;;;4.63;3.20;;;;;;;12.24;100.00;97487.34;5109950;28;20047;-94
2023/05/17 05:01:29;;;;;;;4.18;2.80;;;;;;;12.23;100.00;97482.94;5109645;28;20043;-94
2023/05/17 05:03:56;;;;;;;4.45;3.15;;;;;;;12.22;100.00;97490.06;5109081;28;20114;-94
2023/05/17 05:06:22;;;;;;;4.63;2.80;;;;;;;12.39;100.00;97515.81;5109089;28;20055;-94
2023/05/17 05:08:48;;;;;;;5.07;3.40;;;;;;;12.23;100.00;97491.81;5110179;28;20065;-93
2023/05/17 05:11:15;;;;;;;5.53;3.20;;;;;;;12.25;100.00;97495.25;5110369;28;20044;-95
2023/05/17 05:13:42;;;;;;;6.05;3.25;;;;;;;12.35;100.00;97500.94;5109871;28;20049;-95
2023/05/17 05:16:09;;;;;;;5.82;3.30;;;;;;;12.35;100.00;97500.06;5109901;28;20039;-94
2023/05/17 05:18:35;;;;;;;8.02;3.47;;;;;;;12.41;100.00;97508.59;5110167;28;20039;-94
2023/05/17 05:21:02;;;;;;;6.15;3.60;;;;;;;12.48;100.00;97504.63;5111100;28;20070;-94
2023/05/17 05:23:28;;;;;;;5.72;4.13;;;;;;;12.58;100.00;97510.34;5110289;28;20055;-94
2023/05/17 05:25:54;;;;;;;7.63;4.13;;;;;;;12.78;100.00;97525.22;5110164;28;20054;-94
2023/05/17 05:28:20;;;;;;;5.30;3.25;;;;;;;12.84;100.00;97524.03;5109998;28;20043;-95
2023/05/17 05:30:47;;;;;;;6.05;3.70;;;;;;;12.92;100.00;97519.09;5110304;28;20050;-94
2023/05/17 05:33:13;;;;;;;6.00;3.92;;;;;;;13.08;100.00;97535.97;5109540;28;20051;-95
2023/05/17 05:35:39;;;;;;;4.90;3.20;;;;;;;13.08;100.00;97527.13;5109379;28;20047;-94
2023/05/17 05:38:06;;;;;;;5.85;3.30;;;;;;;13.10;100.00;97528.75;5109165;28;20044;-95
2023/05/17 05:40:32;;;;;;;6.47;3.67;;;;;;;13.20;100.00;97537.06;5109344;28;20047;-95
2023/05/17 05:42:58;;;;;;;6.75;3.72;;;;;;;13.34;100.00;97560.38;5109059;28;20043;-94
2023/05/17 05:45:24;;;;;;;12.23;5.32;;;;;;;13.43;100.00;97559.81;5108862;28;20048;-94
2023/05/17 05:47:52;;;;;;;12.88;4.68;;;;;;;13.36;100.00;97542.44;5109825;28;20114;-96
2023/05/17 05:50:18;;;;;;;5.43;3.88;;;;;;;13.44;100.00;97536.63;5109818;28;20043;-95
2023/05/17 05:52:45;;;;;;;9.65;5.32;;;;;;;13.46;100.00;97538.25;5109433;28;20116;-94
2023/05/17 05:55:14;;;;;;;14.63;6.68;;;;;;;13.51;100.00;97538.00;5109562;28;20043;-94
2023/05/17 05:57:40;;;;;;;7.70;4.07;;;;;;;13.72;100.00;97562.59;5109548;28;20115;-95
2023/05/17 06:00:07;;;;;;;5.13;3.67;;;;;;;13.68;100.00;97542.34;5109590;28;20101;-96
2023/05/17 06:02:37;;;;;;;7.15;4.10;;;;;;;13.69;100.00;97547.59;5111736;28;20054;-96
2023/05/17 06:05:05;;;;;;;5.68;4.00;;;;;;;13.67;100.00;97551.31;5112346;28;20051;-95
2023/05/17 06:07:31;;;;;;;6.25;4.28;;;;;;;13.82;100.00;97554.91;5109394;28;20055;-95
2023/05/17 06:09:58;;;;;;;5.63;3.45;;;;;;;13.80;100.00;97541.63;5109775;28;20040;-95
2023/05/17 06:12:24;;;;;;;5.97;3.88;;;;;;;13.91;100.00;97563.22;5109384;28;20044;-96
2023/05/17 06:14:50;;;;;;;8.43;3.55;;;;;;;14.01;100.00;97554.63;5109328;28;20070;-95
2023/05/17 06:17:16;;;;;;;9.52;4.63;;;;;;;14.13;100.00;97553.91;5109051;28;20142;-95
2023/05/17 06:19:42;;;;;;;15.02;4.35;;;;;;;14.28;100.00;97557.47;5108696;28;20093;-94
2023/05/17 06:22:10;;;;;;;6.53;3.80;;;;;;;14.65;100.00;97584.63;5109493;28;20043;-95
2023/05/17 06:24:36;;;;;;;4.82;3.40;;;;;;;14.61;100.00;97567.91;5109172;28;20103;-95
2023/05/17 06:27:03;;;;;;;5.10;3.42;;;;;;;14.89;100.00;97591.09;5109321;28;20497;-95
2023/05/17 06:29:29;;;;;;;8.38;3.90;;;;;;;14.95;100.00;97568.44;5109778;28;20040;-95
2023/05/17 06:31:56;;;;;;;5.20;3.33;;;;;;;15.02;100.00;97564.41;5112073;28;20051;-96
2023/05/17 06:34:24;;;;;;;8.50;3.30;;;;;;;15.13;100.00;97571.75;5113556;28;20050;-96
2023/05/17 06:36:50;;;;;;;5.38;3.40;;;;;;;15.22;100.00;97587.22;5114242;28;20039;-96
2023/05/17 06:39:18;;;;;;;5.85;3.40;;;;;;;15.32;100.00;97593.69;5113351;28;20036;-96
2023/05/17 06:41:52;;;;;;;7.13;3.58;;;;;;;15.19;100.00;97582.06;5113850;28;20047;-95
2023/05/17 06:44:18;;;;;;;5.28;3.15;;;;;;;15.13;100.00;97579.78;5111269;28;20054;-96
2023/05/17 06:46:44;;;;;;;4.97;3.15;;;;;;;15.14;100.00;97576.16;5112776;28;20047;-96
2023/05/17 06:49:11;;;;;;;5.32;3.20;;;;;;;15.45;100.00;97582.19;5111644;28;20043;-96
2023/05/17 06:51:37;;;;;;;5.70;3.88;;;;;;;15.68;100.00;97586.91;5113221;28;20389;-96
2023/05/17 06:54:04;;;;;;;5.25;3.22;;;;;;;15.71;100.00;97601.91;5111707;28;20043;-95
2023/05/17 06:56:33;;;;;;;6.20;3.60;;;;;;;15.60;100.00;97629.41;5112976;28;20054;-96
2023/05/17 06:59:02;;;;;;;5.28;3.33;;;;;;;15.31;100.00;97610.75;5111702;28;20040;-95
2023/05/17 07:01:29;;;;;;;5.75;3.50;;;;;;;15.10;100.00;97590.72;5111772;28;20050;-96
2023/05/17 07:03:58;;;;;;;5.90;3.60;;;;;;;14.99;100.00;97608.31;5112978;28;20101;-96
2023/05/17 07:06:24;;;;;;;7.93;4.05;;;;;;;14.95;100.00;97622.84;5112270;28;20071;-95
2023/05/17 07:08:51;;;;;;;5.53;3.75;;;;;;;14.85;100.00;97613.66;5111839;28;20069;-96
2023/05/17 07:11:17;;;;;;;4.78;3.50;;;;;;;14.87;100.00;97616.25;5110612;28;20040;-96
2023/05/17 07:13:45;;;;;;;6.95;3.80;;;;;;;14.87;100.00;97613.56;5110270;28;20043;-96
2023/05/17 07:16:11;;;;;;;9.70;4.13;;;;;;;15.00;100.00;97635.94;5111961;28;20044;-96
2023/05/17 07:18:37;;;;;;;9.45;3.83;;;;;;;15.00;100.00;97627.91;5112062;28;20134;-96
2023/05/17 07:21:04;;;;;;;7.15;4.00;;;;;;;15.10;100.00;97625.50;5113134;28;20043;-96
2023/05/17 07:23:30;;;;;;;6.45;3.92;;;;;;;15.29;100.00;97619.81;5113679;28;20144;-96
2023/05/17 07:25:56;;;;;;;6.65;4.20;;;;;;;15.54;100.00;97633.34;5113501;28;20040;-96
2023/05/17 07:28:23;;;;;;;6.30;4.18;;;;;;;15.76;100.00;97631.97;5114709;28;20048;-95
2023/05/17 07:30:57;;;;;;;8.23;4.10;;;;;;;15.91;100.00;97638.13;5115169;28;20024;-96
2023/05/17 07:33:24;;;;;;;6.03;4.30;;;;;;;15.98;100.00;97642.13;5116166;28;20134;-96
2023/05/17 07:35:50;;;;;;;7.18;4.07;;;;;;;16.04;100.00;97663.16;5116260;28;20070;-96
2023/05/17 07:38:17;;;;;;;8.13;3.95;;;;;;;15.82;100.00;97645.81;5114583;28;20147;-96
2023/05/17 07:40:43;;;;;;;7.65;4.35;;;;;;;15.96;100.00;97677.09;5114725;28;20485;-96
2023/05/17 07:43:11;;;;;;;5.40;3.90;;;;;;;15.73;100.00;97641.06;5113310;28;20039;-96
2023/05/17 07:45:38;;;;;;;7.50;3.83;;;;;;;15.94;100.00;97667.41;5113886;28;20054;-95
2023/05/17 07:48:09;;;;;;;7.65;4.45;;;;;;;15.91;100.00;97649.72;5112097;28;20059;-96
2023/05/17 07:50:38;;;;;;;7.63;4.22;;;;;;;15.74;100.00;97642.81;5112441;28;20048;-96
2023/05/17 07:53:07;;;;;;;5.88;4.13;;;;;;;15.91;100.00;97649.72;5110182;28;20054;-96
2023/05/17 07:55:33;;;;;;;7.60;4.15;;;;;;;15.97;100.00;97651.97;5108687;28;20451;-96
2023/05/17 07:58:00;;;;;;;6.43;4.38;;;;;;;16.03;100.00;97653.41;5107434;28;20457;-96
2023/05/17 08:00:26;;;;;;;6.05;4.40;;;;;;;16.39;100.00;97689.41;5108061;28;20048;-96
2023/05/17 08:02:53;;;;;;;6.97;4.30;;;;;;;16.15;100.00;97665.97;5108696;28;20201;-96
2023/05/17 08:05:21;;;;;;;5.60;3.80;;;;;;;16.34;100.00;97662.91;5107356;28;20059;-96
2023/05/17 08:07:47;;;;;;;5.60;3.70;;;;;;;16.50;100.00;97662.72;5107293;28;20105;-96
2023/05/17 08:10:14;;;;;;;6.28;4.18;;;;;;;16.62;100.00;97672.59;5107565;28;20039;-96
2023/05/17 08:12:40;;;;;;;6.57;4.15;;;;;;;16.68;100.00;97678.53;5107728;28;20047;-95
2023/05/17 08:15:07;;;;;;;7.45;4.18;;;;;;;16.65;100.00;97668.84;5107932;28;20052;-96
2023/05/17 08:17:33;;;;;;;5.53;4.20;;;;;;;17.00;100.00;97687.91;5107437;28;20564;-96
2023/05/17 08:19:59;;;;;;;6.30;4.32;;;;;;;17.12;100.00;97670.06;5107875;28;20097;-96
2023/05/17 08:22:26;;;;;;;5.68;3.95;;;;;;;17.01;100.00;97676.19;5107720;28;20071;-96
2023/05/17 08:24:53;;;;;;;6.22;4.05;;;;;;;16.98;100.00;97678.22;5105839;28;20485;-96
2023/05/17 08:27:19;;;;;;;6.03;4.07;;;;;;;16.79;100.00;97668.75;5104517;28;20070;-96
2023/05/17 08:29:45;;;;;;;8.98;3.90;;;;;;;16.94;100.00;97680.28;5104828;28;20047;-95
2023/05/17 08:32:11;;;;;;;7.78;4.78;;;;;;;17.00;100.00;97676.28;5105677;28;20047;-94
2023/05/17 08:34:37;;;;;;;17.77;5.05;;;;;;;17.21;100.00;97692.72;5103863;28;20070;-96
2023/05/17 08:37:03;;;;;;;7.45;4.15;;;;;;;17.23;100.00;97688.09;5105093;28;20048;-92
2023/05/17 08:39:31;;;;;;;8.30;4.18;;;;;;;17.32;100.00;97692.81;5104497;28;20047;-95
2023/05/17 08:41:58;;;;;;;5.60;3.95;;;;;;;17.62;100.00;97713.91;5101246;28;20043;-94
2023/05/17 08:44:25;;;;;;;6.90;4.30;;;;;;;17.43;100.00;97694.72;5100844;28;20059;-94
2023/05/17 08:46:52;;;;;;;8.18;4.80;;;;;;;17.27;100.00;97704.88;5100179;28;20101;-93
2023/05/17 08:49:21;;;;;;;5.97;4.15;;;;;;;17.29;100.00;97708.31;5099009;28;20078;-94
2023/05/17 08:51:48;;;;;;;6.47;4.30;;;;;;;17.24;100.00;97700.56;5099422;28;20115;-93
2023/05/17 08:54:14;;;;;;;7.97;4.10;;;;;;;17.47;100.00;97716.88;5100370;28;20047;-93
2023/05/17 08:56:42;;;;;;;9.55;4.32;;;;;;;17.49;100.00;97701.50;5099041;28;20545;-93
2023/05/17 08:59:10;;;;;;;7.67;4.70;;;;;;;17.78;100.00;97702.94;5099646;28;20425;-94
2023/05/17 09:01:38;;;;;;;8.85;4.20;;;;;;;18.13;100.00;97710.25;5099491;28;20146;-95
2023/05/17 09:04:07;;;;;;;8.38;4.00;;;;;;;18.83;100.00;97722.88;5099648;28;20389;-96
2023/05/17 09:06:33;;;;;;;;;;;;;;;19.36;100.00;97732.25;5101449;28;20093;-95
2023/05/17 09:09:00;;;;;;;6.25;4.55;;;;;;;18.85;100.00;97702.06;5098384;28;20380;-94
2023/05/17 09:11:28;;;;;;;8.98;5.65;;;;;;;18.80;100.00;97711.47;5097529;28;20316;-94
2023/05/17 09:13:59;;;;;;;8.13;5.07;;;;;;;18.72;100.00;97712.03;5097693;28;20138;-93
2023/05/17 09:16:27;;;;;;;6.10;4.38;;;;;;;18.62;100.00;97732.56;5096655;28;20036;-92
2023/05/17 09:18:54;;;;;;;8.50;4.40;;;;;;;18.58;100.00;97726.56;5097388;28;20055;-93
2023/05/17 09:21:21;;;;;;;6.88;4.00;;;;;;;18.31;100.00;97717.91;5096660;28;20040;-93
2023/05/17 09:23:47;;;;;;;7.53;4.30;;;;;;;18.25;100.00;97713.81;5094654;28;20035;-92
2023/05/17 09:26:13;;;;;;;8.77;3.88;;;;;;;17.85;100.00;97709.59;5097573;28;20385;-93
2023/05/17 09:28:42;;;;;;;5.88;4.18;;;;;;;17.81;100.00;97726.88;5097135;28;20050;-92
2023/05/17 09:31:13;;;;;;;7.05;3.92;;;;;;;17.51;100.00;97718.38;5097630;28;20040;-93
2023/05/17 09:33:43;;;;;;;9.20;4.32;;;;;;;17.40;100.00;97754.94;5100366;28;20040;-94
2023/05/17 09:36:19;;;;;;;5.85;3.92;;;;;;;16.83;100.00;97717.78;5103480;28;20071;-95
2023/05/17 09:38:57;;;;;;;14.18;6.68;;;;;;;16.55;100.00;97725.00;5106924;28;20047;-96
2023/05/17 09:41:26;;;;;;;11.80;4.93;;;;;;;16.37;100.00;97736.97;5108711;28;20070;-96
2023/05/17 09:43:59;;;;;;;5.80;3.75;;;;;;;16.40;100.00;97737.63;5109638;28;20284;-95
2023/05/17 09:46:32;;;;;;;6.78;4.05;;;;;;;16.47;100.00;97750.63;5106567;28;20056;-96
2023/05/17 09:49:01;;;;;;;6.75;4.15;;;;;;;16.52;100.00;97748.47;5102432;28;20070;-93
2023/05/17 09:52:04;;;;;;;8.05;4.10;;;;;;;16.68;100.00;97756.38;5100889;28;20611;-95
2023/05/17 09:55:26;;;;;;;;;;;;;;;;;;;;;
2023/05/17 09:57:53;;;;;;;8.45;6.35;;;;;;;16.74;100.00;97778.28;5119199;28;20044;-96
2023/05/17 10:00:30;;;;;;;6.63;5.20;;;;;;;16.82;100.00;97788.53;5107354;28;20046;-96
2023/05/17 10:02:59;;;;;;;7.85;4.93;;;;;;;16.63;100.00;97772.78;5108966;28;20050;-95
2023/05/17 10:05:26;;;;;;;8.30;5.93;;;;;;;16.57;100.00;97755.28;5108739;28;20039;-93
2023/05/17 10:07:56;;;;;;;11.82;7.65;;;;;;;16.55;100.00;97765.25;5097291;28;20044;-94
2023/05/17 10:10:23;;;;;;;16.00;6.95;;;;;;;16.50;100.00;97762.00;5091529;28;20044;-94
2023/05/17 10:12:50;;;;;;;11.60;7.90;;;;;;;16.51;100.00;97790.56;5090700;28;20135;-96
2023/05/17 10:15:16;;;;;;;8.52;7.57;;;;;;;16.42;100.00;97794.72;5090265;28;20048;-94
2023/05/17 10:17:43;;;;;;;8.10;3.75;;;;;;;16.25;100.00;97768.16;5089375;28;20055;-95
2023/05/17 10:20:13;;;;;;;7.15;6.28;;;;;;;16.23;100.00;97776.31;5090833;28;20044;-96
2023/05/17 10:22:40;;;;;;;5.93;3.45;;;;;;;16.20;100.00;97784.56;5089830;28;20553;-96
2023/05/17 10:25:07;;;;;;;7.93;3.78;;;;;;;16.23;100.00;97791.53;5091231;28;20051;-95
2023/05/17 10:27:33;;;;;;;6.22;3.33;;;;;;;16.10;100.00;97785.25;5091989;28;20073;-96
2023/05/17 10:30:00;;;;;;;8.15;4.75;;;;;;;16.00;100.00;97782.31;5092099;28;20099;-95
2023/05/17 10:32:28;;;;;;;7.45;3.00;;;;;;;15.87;100.00;97802.81;5092714;28;20047;-96
2023/05/17 10:34:55;;;;;;;3.67;2.92;;;;;;;15.92;100.00;97795.38;5091802;28;20047;-96
2023/05/17 10:37:24;;;;;;;7.63;3.47;;;;;;;15.91;100.00;97823.97;5092507;28;20458;-95
2023/05/17 10:39:51;;;;;;;4.95;2.70;;;;;;;15.63;100.00;97790.00;5092251;28;20063;-95
2023/05/17 10:42:32;;;;;;;5.60;3.67;;;;;;;15.79;100.00;97827.47;5092964;28;20082;-96
2023/05/17 10:45:25;;;;;;;5.35;2.90;;;;;;;15.64;100.00;97850.69;5092278;28;20044;-95
2023/05/17 10:47:56;;;;;;;5.75;4.53;;;;;;;15.29;100.00;97818.91;5093327;28;20063;-95
2023/05/17 10:50:37;;;;;;;9.55;2.40;;;;;;;15.75;100.00;97809.84;5092356;28;20036;-96
2023/05/17 10:53:32;;;;;;;4.40;2.50;;;;;;;16.07;100.00;97809.59;5089861;28;20053;-95
2023/05/17 10:56:09;;;;;;;3.78;2.50;;;;;;;16.33;100.00;97802.50;5087372;28;20036;-95
2023/05/17 10:58:40;;;;;;;5.53;2.20;;;;;;;16.40;100.00;97798.47;5086125;28;20040;-94
2023/05/17 11:01:31;;;;;;;5.07;2.40;;;;;;;16.45;100.00;97795.50;5085000;28;20044;-96
2023/05/17 11:04:24;;;;;;;5.82;2.80;;;;;;;16.60;100.00;97819.47;5084035;28;20083;-96
2023/05/17 11:07:20;;;;;;;4.20;2.50;;;;;;;16.12;100.00;97818.22;5086471;28;20105;-94
2023/05/17 11:09:51;;;;;;;3.55;2.47;;;;;;;16.08;100.00;97817.53;5104197;28;20047;-94
2023/05/17 11:12:35;;;;;;;4.72;2.38;;;;;;;16.22;100.00;97828.25;5105509;28;20044;-96
2023/05/17 11:15:05;;;;;;;4.68;1.85;;;;;;;16.37;100.00;97809.41;5105225;28;20066;-96
2023/05/17 11:17:36;;;;;;;2.90;1.90;;;;;;;16.33;100.00;97816.81;5105153;28;20111;-94
2023/05/17 11:20:05;;;;;;;6.68;4.57;;;;;;;16.23;100.00;97811.16;5102095;28;20036;-96
2023/05/17 11:22:36;;;;;;;4.70;2.38;;;;;;;16.40;100.00;97812.75;5101787;28;20043;-95
2023/05/17 11:25:07;;;;;;;3.72;1.90;;;;;;;16.75;100.00;97843.59;5101371;28;20071;-94
2023/05/17 11:27:38;;;;;;;4.10;2.10;;;;;;;16.43;100.00;97820.59;5101326;28;20043;-94
2023/05/17 11:30:09;;;;;;;3.95;1.88;;;;;;;16.83;100.00;97822.50;5100888;28;20043;-95
2023/05/17 11:32:35;;;;;;;2.80;2.10;;;;;;;16.27;100.00;97821.72;5100498;28;20059;-94
2023/05/17 11:35:02;;;;;;;3.03;2.10;;;;;;;16.79;100.00;97842.41;5098907;28;20568;-92
2023/05/17 11:37:28;;;;;;;8.13;2.30;;;;;;;17.18;100.00;97836.19;5098738;28;20050;-93
2023/05/17 11:40:03;;;;;;;3.72;1.92;;;;;;;17.44;100.00;97818.25;5098785;28;20032;-93
2023/05/17 11:42:30;;;;;;;3.05;1.77;;;;;;;17.24;100.00;97824.16;5099238;28;20599;-95
2023/05/17 11:44:57;;;;;;;3.35;1.80;;;;;;;17.36;100.00;97862.75;5098949;28;20047;-93
2023/05/17 11:47:24;;;;;;;4.63;2.13;;;;;;;17.02;100.00;97840.88;5098938;28;20055;-92
2023/05/17 11:49:51;;;;;;;7.32;2.20;;;;;;;17.49;100.00;97855.53;5098734;28;20480;-93
2023/05/17 11:52:18;;;;;;;3.08;1.92;;;;;;;17.83;100.00;97829.00;5098094;28;20051;-93
2023/05/17 11:54:44;;;;;;;3.92;2.00;;;;;;;18.43;100.00;97852.44;5098252;28;20051;-94
2023/05/17 11:57:15;;;;;;;5.22;2.20;;;;;;;18.48;100.00;97827.84;5098924;28;20036;-93
2023/05/17 11:59:42;;;;;;;8.57;2.92;;;;;;;17.70;100.00;97831.69;5098761;28;20050;-93
2023/05/17 12:02:09;;;;;;;4.90;2.50;;;;;;;17.28;100.00;97819.41;5098398;28;20039;-94
2023/05/17 12:04:36;;;;;;;4.30;2.47;;;;;;;17.77;100.00;97850.91;5098746;28;20048;-92
2023/05/17 12:07:03;;;;;;;5.00;2.72;;;;;;;17.83;100.00;97842.47;5094287;28;20097;-94
2023/05/17 12:09:30;;;;;;;7.30;2.63;;;;;;;17.98;100.00;97862.88;5098188;28;20138;-94
2023/05/17 12:11:56;;;;;;;4.57;2.47;;;;;;;17.58;100.00;97837.91;5086784;28;20078;-94
2023/05/17 12:14:24;;;;;;;9.68;2.97;;;;;;;17.84;99.00;97828.88;5079300;28;20044;-95
2023/05/17 12:16:55;;;;;;;5.97;2.65;;;;;;;18.12;97.17;97851.09;5078683;28;20058;-94